Time;durP1;ratioP1;P1;durP2;ratioP2;P2;SDS_P1;SDS_P2;PMS_P1;PMS_P2;Temp;Humidity;BMP_temperature;BMP_pressure;BME280_temperature;BME280_humidity;BME280_pressure;Samples;Min_cycle;Max_cycle;Signal;HPM_P1;HPM_P2
2022/08/12 00:45:10;;;;;;;4.77;4.30;;;28.60;33.90;;;;;;5043159;28;20538;-68
2022/08/12 00:47:39;;;;;;;4.30;4.00;;;28.60;33.80;;;;;;5059779;28;20450;-67
2022/08/12 00:50:16;;;;;;;4.53;4.13;;;28.60;33.90;;;;;;5045853;28;20465;-67
2022/08/12 00:52:46;;;;;;;5.10;4.43;;;28.60;34.10;;;;;;5041458;28;20458;-67
2022/08/12 00:55:14;;;;;;;4.20;3.90;;;28.60;34.00;;;;;;5074044;28;20466;-67
2022/08/12 00:57:47;;;;;;;4.80;3.87;;;28.60;34.10;;;;;;5063527;22;20480;-67
2022/08/12 01:00:18;;;;;;;3.90;3.70;;;28.60;34.00;;;;;;5059282;28;21017;-67
2022/08/12 01:02:50;;;;;;;3.77;3.43;;;28.60;33.90;;;;;;5045476;28;20416;-67
2022/08/12 01:13:56;;;;;;;3.97;3.73;;;28.60;33.90;;;;;;5019430;28;20439;-67
2022/08/12 01:16:26;;;;;;;4.20;3.90;;;28.50;33.90;;;;;;5045137;28;20567;-67
2022/08/12 01:18:57;;;;;;;3.93;3.63;;;28.50;33.80;;;;;;5021216;28;20481;-67
2022/08/12 01:21:45;;;;;;;4.60;4.30;;;28.50;33.80;;;;;;5027443;28;20471;-67
2022/08/12 01:24:43;;;;;;;4.67;4.27;;;28.50;33.80;;;;;;5046128;28;20473;-66
2022/08/12 01:27:15;;;;;;;4.93;4.53;;;28.50;33.90;;;;;;5035142;28;20899;-66
2022/08/12 01:29:46;;;;;;;4.30;4.00;;;28.50;33.90;;;;;;5043045;28;20484;-66
2022/08/12 01:32:15;;;;;;;4.17;3.87;;;28.50;33.80;;;;;;5061132;28;20447;-66
2022/08/12 01:34:57;;;;;;;4.43;4.03;;;28.50;33.90;;;;;;5030434;28;20522;-67
2022/08/12 01:37:26;;;;;;;4.00;3.70;;;28.50;34.00;;;;;;5038788;28;20432;-67
2022/08/12 01:39:59;;;;;;;4.50;4.20;;;28.50;34.00;;;;;;5034480;28;20443;-66
2022/08/12 01:42:50;;;;;;;4.40;4.07;;;28.50;33.90;;;;;;5038268;28;20439;-67
2022/08/12 01:45:23;;;;;;;5.00;4.60;;;28.50;33.80;;;;;;5040830;28;20467;-66
2022/08/12 01:48:04;;;;;;;4.43;4.13;;;28.50;33.90;;;;;;5044900;28;20488;-67
2022/08/12 01:50:45;;;;;;;4.63;4.33;;;28.50;34.10;;;;;;5028075;28;20477;-67
2022/08/12 01:53:14;;;;;;;3.97;3.77;;;28.50;34.20;;;;;;5032217;28;20462;-67
2022/08/12 01:55:47;;;;;;;3.97;3.67;;;28.50;34.10;;;;;;5038079;28;20435;-67
2022/08/12 01:58:25;;;;;;;4.47;4.20;;;28.50;34.20;;;;;;5041507;28;20958;-67
2022/08/12 02:00:59;;;;;;;4.37;4.07;;;28.40;33.90;;;;;;5048552;28;20859;-67
2022/08/12 02:13:08;;;;;;;4.40;4.10;;;28.40;33.90;;;;;;5059197;28;20568;-67
2022/08/12 02:15:48;;;;;;;4.57;4.27;;;28.40;34.00;;;;;;5043670;28;20537;-66
2022/08/12 02:18:29;;;;;;;5.13;4.73;;;28.40;34.00;;;;;;5054377;28;20466;-67
2022/08/12 02:21:03;;;;;;;4.77;4.40;;;28.40;34.00;;;;;;5053308;28;20486;-67
2022/08/12 02:23:38;;;;;;;4.43;4.13;;;28.40;34.10;;;;;;5046657;28;21326;-67
2022/08/12 02:26:09;;;;;;;4.97;4.57;;;28.40;34.10;;;;;;5039335;28;20503;-67
2022/08/12 02:28:38;;;;;;;4.97;4.57;;;28.40;34.10;;;;;;5034422;28;20479;-66
2022/08/12 02:31:10;;;;;;;5.00;4.70;;;28.40;34.00;;;;;;5044631;28;20472;-66
2022/08/12 02:33:40;;;;;;;4.80;4.40;;;28.40;35.20;;;;;;5061120;28;20470;-67
2022/08/12 02:36:08;;;;;;;3.73;3.53;;;28.40;34.00;;;;;;5035844;28;20490;-67
2022/08/12 02:38:42;;;;;;;4.77;4.27;;;28.40;34.10;;;;;;5038871;28;20439;-67
2022/08/12 02:41:12;;;;;;;4.70;4.40;;;28.40;34.40;;;;;;5036580;28;21027;-67
2022/08/12 02:43:48;;;;;;;4.73;4.43;;;28.40;34.10;;;;;;5030060;28;20865;-67
2022/08/12 02:46:21;;;;;;;5.13;4.73;;;28.40;34.00;;;;;;5067084;28;20563;-67
2022/08/12 02:48:51;;;;;;;4.90;4.50;;;28.40;34.10;;;;;;5050567;28;21007;-66
2022/08/12 02:51:24;;;;;;;4.70;4.40;;;28.30;34.00;;;;;;5047652;28;20578;-68
2022/08/12 02:53:53;;;;;;;4.77;4.37;;;28.30;34.10;;;;;;5047266;28;20467;-67
2022/08/12 02:56:36;;;;;;;4.43;4.13;;;28.30;34.10;;;;;;5041192;28;20852;-67
2022/08/12 02:59:10;;;;;;;4.10;3.80;;;28.30;34.20;;;;;;5060239;28;20452;-66
2022/08/12 03:01:46;;;;;;;4.50;4.10;;;28.30;34.10;;;;;;5030674;28;20530;-66
2022/08/12 03:04:25;;;;;;;5.20;4.80;;;28.30;34.00;;;;;;5044494;28;20525;-66
2022/08/12 03:07:04;;;;;;;4.53;3.80;;;28.30;34.20;;;;;;5064588;28;20973;-67
2022/08/12 03:09:38;;;;;;;4.73;4.40;;;28.30;34.40;;;;;;5028653;28;20820;-66
2022/08/12 03:12:28;;;;;;;4.47;4.17;;;28.30;34.40;;;;;;5044065;28;20468;-67
2022/08/12 03:15:08;;;;;;;5.13;4.70;;;28.30;34.20;;;;;;5040226;28;20443;-66
2022/08/12 03:17:44;;;;;;;4.40;4.10;;;28.30;34.10;;;;;;5063052;28;20518;-67
2022/08/12 03:20:39;;;;;;;4.80;4.40;;;28.30;34.20;;;;;;5028527;28;20471;-67
2022/08/12 03:23:11;;;;;;;4.80;4.40;;;28.20;34.20;;;;;;5039766;28;20490;-65
2022/08/12 03:25:59;;;;;;;3.73;3.43;;;28.20;34.40;;;;;;5030784;28;20479;-67
2022/08/12 03:31:20;;;;;;;5.20;4.80;;;28.20;34.30;;;;;;5047118;28;20463;-67
2022/08/12 03:33:50;;;;;;;4.43;4.13;;;28.20;34.20;;;;;;5035842;28;20476;-65
2022/08/12 03:36:32;;;;;;;5.03;4.73;;;28.20;34.20;;;;;;5050694;28;20473;-66
2022/08/12 03:41:51;;;;;;;5.17;4.77;;;28.20;34.30;;;;;;5029312;28;20468;-66
2022/08/12 04:01:12;;;;;;;4.60;4.30;;;28.10;34.30;;;;;;5019838;28;20732;-66
2022/08/12 04:03:51;;;;;;;4.53;4.23;;;28.10;34.30;;;;;;5044703;28;20493;-66
2022/08/12 04:06:21;;;;;;;5.17;4.77;;;28.10;34.30;;;;;;5062681;28;20466;-67
2022/08/12 04:09:05;;;;;;;4.53;4.00;;;28.10;34.10;;;;;;5044000;28;20963;-67
2022/08/12 04:14:32;;;;;;;4.20;3.90;;;28.10;34.30;;;;;;5058977;28;20421;-65
2022/08/12 04:17:01;;;;;;;4.53;4.23;;;28.10;34.60;;;;;;5045976;28;20493;-66
2022/08/12 04:19:31;;;;;;;4.33;4.03;;;28.10;34.50;;;;;;5053598;28;21297;-67
2022/08/12 04:22:00;;;;;;;5.20;4.40;;;28.10;34.60;;;;;;5036684;28;20466;-66
2022/08/12 04:24:33;;;;;;;4.30;4.10;;;28.00;34.30;;;;;;5029813;28;20463;-65
2022/08/12 04:27:05;;;;;;;3.90;3.60;;;28.10;34.60;;;;;;5030209;28;20826;-66
2022/08/12 04:29:36;;;;;;;4.47;4.10;;;28.00;34.70;;;;;;5038217;28;20447;-66
2022/08/12 04:32:24;;;;;;;5.10;4.57;;;28.00;34.30;;;;;;5043596;28;20867;-67
2022/08/12 04:34:55;;;;;;;4.43;4.13;;;28.00;34.40;;;;;;5019800;28;20498;-67
2022/08/12 04:37:27;;;;;;;3.97;3.77;;;28.00;34.40;;;;;;5030498;28;20439;-66
2022/08/12 04:40:16;;;;;;;4.40;4.13;;;28.00;34.30;;;;;;5023920;28;20463;-66
2022/08/12 04:42:55;;;;;;;4.60;4.30;;;28.00;34.40;;;;;;5040953;28;20505;-66
2022/08/12 04:45:23;;;;;;;4.53;4.17;;;28.00;34.50;;;;;;5046585;28;20437;-67
2022/08/12 04:47:52;;;;;;;4.70;4.30;;;28.00;34.50;;;;;;5054519;28;20443;-67
2022/08/12 04:50:23;;;;;;;4.20;3.90;;;28.00;34.30;;;;;;5037406;28;20863;-66
2022/08/12 04:53:05;;;;;;;4.30;4.00;;;28.00;34.30;;;;;;5042485;28;20566;-67
2022/08/12 04:55:34;;;;;;;5.00;4.60;;;28.00;34.40;;;;;;5029185;28;20493;-66
2022/08/12 04:58:02;;;;;;;5.17;4.77;;;27.90;34.30;;;;;;5029442;28;20522;-67
2022/08/12 05:00:31;;;;;;;4.97;4.27;;;27.90;34.30;;;;;;5030177;28;20462;-67
2022/08/12 05:03:00;;;;;;;4.90;4.50;;;27.90;34.50;;;;;;5046216;28;21029;-66
2022/08/12 05:05:31;;;;;;;5.37;4.93;;;27.90;34.30;;;;;;5046669;28;21005;-67
2022/08/12 05:08:06;;;;;;;4.47;4.17;;;27.90;34.30;;;;;;5035676;28;20530;-67
2022/08/12 05:10:35;;;;;;;4.00;3.80;;;27.90;34.50;;;;;;5024649;28;20475;-66
2022/08/12 05:13:08;;;;;;;4.40;4.10;;;27.90;34.30;;;;;;5032438;28;20574;-67
2022/08/12 05:15:38;;;;;;;4.30;4.00;;;27.90;34.60;;;;;;5045753;28;20443;-67
2022/08/12 05:18:27;;;;;;;5.07;4.57;;;27.90;34.80;;;;;;5056910;28;20466;-66
2022/08/12 05:20:58;;;;;;;4.90;4.50;;;27.90;34.60;;;;;;5026318;28;20502;-66
2022/08/12 05:23:28;;;;;;;4.33;4.03;;;27.90;34.40;;;;;;5033869;28;20436;-66
2022/08/12 05:25:56;;;;;;;4.30;4.00;;;27.90;34.40;;;;;;5027929;28;20470;-64
2022/08/12 05:28:29;;;;;;;4.33;3.93;;;27.90;34.70;;;;;;5019341;28;20428;-67
2022/08/12 05:31:00;;;;;;;4.40;4.10;;;27.90;34.60;;;;;;5012266;28;20768;-66
2022/08/12 05:33:36;;;;;;;3.87;3.57;;;27.80;34.50;;;;;;5021047;28;20469;-67
2022/08/12 05:36:08;;;;;;;4.80;4.40;;;27.80;34.40;;;;;;5045202;28;20467;-67
2022/08/12 05:41:24;;;;;;;3.97;3.77;;;27.80;34.50;;;;;;5042486;28;20990;-67
2022/08/12 05:43:54;;;;;;;3.83;3.60;;;27.80;34.50;;;;;;5051104;28;20462;-67
2022/08/12 05:46:24;;;;;;;5.00;4.50;;;27.80;35.20;;;;;;5028401;28;20455;-67
2022/08/12 05:48:54;;;;;;;4.27;3.97;;;27.80;35.20;;;;;;5051687;28;20533;-66
2022/08/12 05:51:25;;;;;;;5.47;5.07;;;27.70;34.70;;;;;;5044749;28;20463;-65
2022/08/12 05:54:08;;;;;;;5.20;4.70;;;27.70;34.60;;;;;;5027955;28;20538;-67
2022/08/12 05:56:37;;;;;;;5.33;4.90;;;27.60;34.30;;;;;;5052037;28;20466;-73
2022/08/12 05:59:06;;;;;;;6.53;5.17;;;27.60;34.00;;;;;;5034041;28;20447;-72
2022/08/12 06:01:35;;;;;;;5.90;5.40;;;27.50;33.80;;;;;;5041985;28;20486;-72
2022/08/12 06:04:23;;;;;;;7.40;4.90;;;27.50;33.90;;;;;;5047263;28;21016;-72
2022/08/12 06:06:53;;;;;;;4.63;4.20;;;27.40;34.00;;;;;;5028821;28;20467;-72
2022/08/12 06:09:22;;;;;;;5.03;4.63;;;27.40;33.70;;;;;;5039122;28;20558;-72
2022/08/12 06:11:50;;;;;;;9.33;5.77;;;27.40;33.50;;;;;;5034155;28;21028;-72
2022/08/12 06:14:35;;;;;;;6.57;5.20;;;27.40;33.60;;;;;;5042494;28;20555;-72
2022/08/12 06:17:08;;;;;;;5.60;5.00;;;27.30;33.70;;;;;;5037620;28;20489;-72
2022/08/12 06:19:37;;;;;;;5.73;4.90;;;27.30;33.70;;;;;;5040277;28;20451;-73
2022/08/12 06:22:26;;;;;;;5.70;4.93;;;27.30;33.90;;;;;;5043208;28;20471;-72
2022/08/12 06:24:55;;;;;;;5.10;4.60;;;27.30;33.30;;;;;;5027004;28;20446;-71
2022/08/12 06:27:23;;;;;;;5.30;4.80;;;27.30;33.60;;;;;;5024327;28;20439;-72
2022/08/12 06:29:52;;;;;;;4.73;4.37;;;27.30;32.70;;;;;;5029759;28;20439;-72
2022/08/12 06:32:39;;;;;;;4.77;4.10;;;27.20;33.00;;;;;;5045368;28;20469;-72
2022/08/12 06:35:28;;;;;;;5.30;4.70;;;27.20;32.90;;;;;;5054547;28;21001;-72
2022/08/12 06:38:20;;;;;;;4.63;4.33;;;27.20;33.00;;;;;;5033552;28;20448;-70
2022/08/12 06:43:40;;;;;;;4.53;4.10;;;27.20;32.60;;;;;;5015732;28;20529;-67
2022/08/12 06:46:30;;;;;;;4.90;4.50;;;27.30;32.40;;;;;;5032768;28;20834;-66
2022/08/12 06:48:59;;;;;;;4.40;4.00;;;27.30;32.40;;;;;;5061564;28;20447;-66
2022/08/12 06:51:29;;;;;;;4.07;3.77;;;27.40;31.60;;;;;;5056546;28;21349;-66
2022/08/12 06:54:00;;;;;;;4.60;4.20;;;27.50;31.80;;;;;;5051187;28;20514;-66
2022/08/12 06:56:28;;;;;;;4.50;3.90;;;27.50;31.00;;;;;;5055191;28;21079;-66
2022/08/12 06:59:20;;;;;;;5.07;4.00;;;27.60;31.00;;;;;;5106324;22;20580;-69
2022/08/12 07:01:49;;;;;;;5.43;4.70;;;27.60;31.20;;;;;;5094272;28;20824;-69
2022/08/12 07:04:20;;;;;;;4.13;3.80;;;27.60;30.70;;;;;;5086493;28;20464;-68
2022/08/12 07:07:07;;;;;;;5.97;4.00;;;27.70;30.30;;;;;;5106509;28;20522;-68
2022/08/12 07:09:37;;;;;;;4.00;3.77;;;27.70;30.70;;;;;;5101767;28;20792;-68
2022/08/12 07:12:26;;;;;;;4.97;4.47;;;27.70;30.20;;;;;;5083050;28;20453;-69
2022/08/12 07:14:56;;;;;;;4.20;3.90;;;27.80;30.00;;;;;;5080062;28;20469;-69
2022/08/12 07:17:24;;;;;;;4.30;3.77;;;27.70;30.00;;;;;;5080776;28;20508;-68
2022/08/12 07:19:53;;;;;;;5.10;4.37;;;27.80;30.00;;;;;;5107292;28;20461;-66
2022/08/12 07:22:27;;;;;;;8.00;4.10;;;27.70;29.80;;;;;;5100480;28;20540;-66
2022/08/12 07:27:44;;;;;;;4.40;3.83;;;27.80;29.90;;;;;;5085511;28;20429;-68
2022/08/12 07:30:13;;;;;;;7.07;3.50;;;27.80;30.30;;;;;;5103529;28;20530;-68
2022/08/12 07:32:48;;;;;;;6.70;3.70;;;27.80;29.90;;;;;;5105183;28;20824;-69
2022/08/12 07:35:18;;;;;;;3.80;3.40;;;27.80;30.00;;;;;;5105534;28;20455;-68
2022/08/12 07:37:49;;;;;;;6.03;3.70;;;27.80;30.00;;;;;;5106172;28;20445;-68
2022/08/12 07:40:19;;;;;;;4.20;3.60;;;27.80;30.00;;;;;;5089361;28;20503;-68
2022/08/12 07:42:48;;;;;;;3.97;3.47;;;27.80;30.00;;;;;;5086248;28;21254;-68
2022/08/12 07:45:18;;;;;;;3.43;3.13;;;27.70;30.00;;;;;;5083126;28;20461;-68
2022/08/12 07:47:47;;;;;;;4.90;3.47;;;27.70;29.80;;;;;;5078788;28;20433;-68
2022/08/12 07:50:20;;;;;;;4.27;3.77;;;27.70;29.80;;;;;;5081973;28;20441;-68
2022/08/12 07:52:51;;;;;;;3.90;3.60;;;27.70;29.80;;;;;;5102867;28;20443;-68
2022/08/12 07:55:20;;;;;;;3.83;3.53;;;27.70;30.00;;;;;;5098395;28;20465;-68
2022/08/12 07:57:54;;;;;;;4.70;4.30;;;27.70;30.20;;;;;;5104790;28;20422;-68
2022/08/12 08:00:23;;;;;;;3.70;3.40;;;27.70;29.80;;;;;;5081709;28;20473;-69
2022/08/12 08:02:53;;;;;;;3.80;3.40;;;27.70;29.90;;;;;;5079619;28;20437;-68
2022/08/12 08:05:24;;;;;;;3.47;3.20;;;27.70;29.80;;;;;;5086887;28;20963;-68
2022/08/12 08:08:00;;;;;;;5.50;4.07;;;27.70;29.80;;;;;;5093092;28;20425;-68
2022/08/12 08:10:32;;;;;;;4.87;3.30;;;27.80;29.90;;;;;;5087110;28;21023;-68
2022/08/12 08:13:03;;;;;;;5.57;3.20;;;27.80;29.90;;;;;;5096281;28;20820;-68
2022/08/12 08:15:33;;;;;;;3.67;3.37;;;27.70;29.80;;;;;;5104571;28;20552;-68
2022/08/12 08:18:24;;;;;;;4.20;3.80;;;27.80;30.00;;;;;;5101332;28;20426;-68
2022/08/12 08:20:56;;;;;;;3.97;3.57;;;27.80;31.00;;;;;;5102823;28;20472;-68
2022/08/12 08:24:13;;;;;;;3.47;3.27;;;27.80;29.90;;;;;;5099876;28;20959;-68
2022/08/12 08:26:31;;;;;;;3.53;3.03;;;27.80;30.00;;;;;;5095760;28;20843;-69
2022/08/12 08:29:02;;;;;;;3.73;3.43;;;27.80;29.90;;;;;;5083889;28;20488;-68
2022/08/12 08:31:32;;;;;;;3.03;2.83;;;27.80;30.00;;;;;;5091457;28;20485;-68
2022/08/12 08:34:00;;;;;;;4.20;3.80;;;27.80;30.00;;;;;;5078232;28;20920;-68
2022/08/12 08:36:49;;;;;;;3.40;3.20;;;27.80;29.70;;;;;;5069621;28;20474;-68
2022/08/12 08:39:20;;;;;;;7.33;3.80;;;27.90;30.00;;;;;;5066970;28;20784;-67
2022/08/12 08:44:48;;;;;;;3.70;2.90;;;27.80;30.00;;;;;;5076675;28;20495;-68
2022/08/12 08:47:25;;;;;;;3.80;3.30;;;27.70;30.20;;;;;;5085120;28;20487;-67
2022/08/12 08:49:56;;;;;;;3.63;3.00;;;27.70;30.30;;;;;;5088213;28;20462;-66
2022/08/12 08:52:30;;;;;;;3.40;3.10;;;27.60;30.30;;;;;;5086615;28;20452;-67
2022/08/12 08:55:15;;;;;;;4.13;3.00;;;27.60;30.60;;;;;;5096568;28;20461;-72
2022/08/12 08:57:54;;;;;;;5.67;3.10;;;27.60;30.70;;;;;;5103029;28;20441;-72
2022/08/12 09:00:22;;;;;;;3.43;3.07;;;27.60;30.80;;;;;;5087456;28;20847;-72
2022/08/12 09:02:51;;;;;;;3.97;2.90;;;27.60;30.90;;;;;;5092722;28;20928;-72
2022/08/12 09:05:27;;;;;;;5.23;2.97;;;27.50;30.90;;;;;;5091172;28;20994;-72
2022/08/12 09:08:18;;;;;;;3.90;3.50;;;27.50;30.90;;;;;;5084241;28;21137;-72
2022/08/12 09:10:57;;;;;;;4.10;3.30;;;27.50;30.80;;;;;;5102342;28;20876;-72
2022/08/12 09:13:27;;;;;;;4.27;2.73;;;27.50;30.80;;;;;;5103337;28;20460;-72
2022/08/12 09:16:16;;;;;;;4.30;3.03;;;27.50;31.00;;;;;;5072442;28;20577;-72
2022/08/12 09:19:08;;;;;;;2.93;2.73;;;27.50;31.00;;;;;;5074691;28;20477;-72
2022/08/12 09:21:56;;;;;;;3.73;2.60;;;27.50;31.00;;;;;;5092201;28;20473;-71
2022/08/12 09:24:27;;;;;;;3.70;2.80;;;27.50;30.80;;;;;;5103659;28;20445;-72
2022/08/12 09:26:59;;;;;;;3.03;2.70;;;27.50;30.90;;;;;;5102534;28;20839;-72
2022/08/12 09:29:29;;;;;;;2.90;2.70;;;27.50;30.90;;;;;;5090111;28;20434;-72
2022/08/12 09:32:18;;;;;;;3.27;2.43;;;27.50;31.00;;;;;;5071733;28;20464;-71
2022/08/12 09:35:07;;;;;;;2.63;2.43;;;27.50;30.90;;;;;;5066547;28;20445;-71
2022/08/12 09:37:51;;;;;;;2.60;2.40;;;27.50;30.80;;;;;;5089860;28;20440;-71
2022/08/12 09:40:30;;;;;;;3.30;2.57;;;27.50;30.80;;;;;;5089577;28;20478;-71
2022/08/12 09:46:23;;;;;;;2.63;2.27;;;27.50;30.70;;;;;;5072555;28;20467;-72
2022/08/12 09:48:53;;;;;;;2.87;2.53;;;27.50;30.70;;;;;;5093483;28;20449;-71
2022/08/12 09:51:25;;;;;;;2.87;2.67;;;27.50;30.50;;;;;;5078893;28;20522;-71
2022/08/12 09:54:05;;;;;;;2.50;2.30;;;27.50;30.70;;;;;;5086752;28;20959;-71
2022/08/12 09:56:57;;;;;;;3.10;2.80;;;27.50;30.80;;;;;;5083330;28;20554;-71
2022/08/12 09:59:45;;;;;;;2.50;2.30;;;27.50;30.70;;;;;;5083243;28;20883;-71
2022/08/12 10:02:58;;;;;;;4.93;2.50;;;27.50;30.60;;;;;;5082916;28;20464;-71
2022/08/12 10:05:32;;;;;;;2.83;2.63;;;27.50;30.10;;;;;;5100438;28;20437;-71
2022/08/12 10:08:20;;;;;;;2.87;2.67;;;27.50;29.40;;;;;;5094304;28;20538;-71
2022/08/12 10:13:48;;;;;;;2.77;2.57;;;27.50;29.30;;;;;;5084297;28;20630;-71
2022/08/12 10:16:20;;;;;;;3.07;2.80;;;27.50;29.40;;;;;;5081876;28;20471;-71
2022/08/12 10:18:53;;;;;;;2.80;2.60;;;27.50;29.40;;;;;;5084080;28;20531;-71
2022/08/12 10:21:23;;;;;;;4.43;2.40;;;27.50;29.60;;;;;;5079237;28;20462;-72
2022/08/12 10:24:05;;;;;;;2.67;2.47;;;27.50;30.80;;;;;;5085095;28;20449;-72
2022/08/12 10:29:38;;;;;;;2.00;1.77;;;27.50;29.80;;;;;;5077985;28;20453;-72
2022/08/12 10:32:26;;;;;;;2.60;2.40;;;27.50;29.80;;;;;;5095404;27;20479;-71
2022/08/12 10:35:16;;;;;;;2.97;2.70;;;27.50;29.50;;;;;;5089858;28;20493;-72
2022/08/12 10:37:45;;;;;;;4.47;2.80;;;27.50;29.60;;;;;;5090743;28;20877;-71
2022/08/12 10:43:39;;;;;;;4.93;2.50;;;27.50;29.80;;;;;;5083432;28;20473;-72
2022/08/12 10:46:24;;;;;;;3.63;2.70;;;27.50;29.90;;;;;;5105632;27;20476;-71
2022/08/12 10:49:00;;;;;;;3.03;2.73;;;27.50;30.00;;;;;;5078272;28;20449;-71
2022/08/12 10:51:50;;;;;;;2.63;2.30;;;27.50;30.00;;;;;;5084264;28;20488;-71
2022/08/12 10:54:40;;;;;;;2.93;2.40;;;27.50;29.90;;;;;;5088463;28;20448;-71
2022/08/12 10:57:09;;;;;;;2.37;2.27;;;27.40;29.90;;;;;;5082372;28;21053;-71
2022/08/12 10:59:58;;;;;;;2.80;2.60;;;27.40;30.00;;;;;;5074362;28;20499;-71
2022/08/12 11:02:53;;;;;;;2.80;2.60;;;27.50;29.90;;;;;;5086688;28;21080;-71
2022/08/12 11:05:43;;;;;;;3.13;2.40;;;27.40;29.80;;;;;;5078119;28;20466;-71
2022/08/12 11:08:34;;;;;;;2.47;2.27;;;27.50;29.90;;;;;;5083699;28;20532;-71
2022/08/12 11:11:13;;;;;;;2.10;2.00;;;27.50;29.90;;;;;;5074859;28;20484;-71
2022/08/12 11:13:45;;;;;;;2.57;2.37;;;27.40;29.90;;;;;;5066479;28;20449;-71
2022/08/12 11:16:17;;;;;;;2.97;2.77;;;27.50;29.90;;;;;;5104038;28;21022;-71
2022/08/12 11:18:49;;;;;;;2.67;2.47;;;27.50;30.00;;;;;;5084819;28;20836;-71
2022/08/12 11:21:23;;;;;;;3.13;2.50;;;27.50;29.80;;;;;;5072935;28;20685;-71
2022/08/12 11:24:13;;;;;;;4.10;2.30;;;27.40;29.80;;;;;;5069428;28;20441;-71
2022/08/12 11:26:59;;;;;;;3.03;2.83;;;27.50;30.00;;;;;;5087008;28;20473;-71
2022/08/12 11:29:35;;;;;;;1.90;1.80;;;27.50;30.00;;;;;;5087128;28;20441;-71
2022/08/12 11:32:24;;;;;;;2.40;2.30;;;27.50;30.00;;;;;;5087276;28;20499;-71
2022/08/12 11:34:52;;;;;;;3.10;2.67;;;27.50;30.00;;;;;;5100536;28;20434;-71
2022/08/12 11:37:24;;;;;;;2.40;2.20;;;27.50;30.00;;;;;;5093818;28;20499;-71
2022/08/12 11:39:55;;;;;;;2.53;2.00;;;27.50;30.00;;;;;;5095551;28;20833;-71
2022/08/12 11:42:34;;;;;;;2.50;2.20;;;27.50;30.00;;;;;;5102119;28;20468;-71
2022/08/12 11:45:14;;;;;;;2.83;2.47;;;27.50;29.50;;;;;;5088413;28;20429;-71
2022/08/12 11:47:44;;;;;;;3.70;2.93;;;27.50;29.20;;;;;;5085007;28;20953;-71
2022/08/12 11:50:13;;;;;;;4.83;2.60;;;27.60;28.80;;;;;;5084730;28;20950;-71
2022/08/12 11:52:59;;;;;;;2.67;2.23;;;27.60;28.50;;;;;;5093559;28;20808;-71
2022/08/12 11:55:31;;;;;;;2.97;2.60;;;27.60;28.70;;;;;;5075849;28;20503;-71
2022/08/12 11:58:13;;;;;;;2.33;2.17;;;27.60;28.90;;;;;;5077798;28;20473;-71
2022/08/12 12:01:02;;;;;;;2.30;2.10;;;27.50;29.00;;;;;;5103612;28;20559;-71
2022/08/12 12:03:50;;;;;;;2.67;2.47;;;27.60;29.20;;;;;;5076855;28;20963;-71
2022/08/12 12:06:21;;;;;;;3.63;2.37;;;27.60;29.30;;;;;;5101331;28;20992;-71
2022/08/12 12:08:50;;;;;;;2.17;1.97;;;27.60;29.40;;;;;;5082345;28;20937;-71
2022/08/12 12:11:22;;;;;;;2.80;2.40;;;27.50;29.50;;;;;;5101162;28;20473;-71
2022/08/12 12:13:52;;;;;;;2.07;1.87;;;27.60;29.50;;;;;;5099871;28;20445;-71
2022/08/12 12:16:38;;;;;;;3.53;2.70;;;27.50;29.50;;;;;;5098775;27;20477;-71
2022/08/12 12:19:08;;;;;;;3.00;2.30;;;27.50;29.40;;;;;;5080636;28;20511;-67
2022/08/12 12:21:38;;;;;;;3.70;2.33;;;27.50;29.40;;;;;;5079032;28;20999;-67
2022/08/12 12:24:16;;;;;;;2.53;2.33;;;27.50;29.50;;;;;;5098519;27;20449;-67
2022/08/12 12:26:51;;;;;;;2.90;2.30;;;27.50;29.50;;;;;;5080436;28;20469;-67
2022/08/12 12:29:28;;;;;;;2.30;1.83;;;27.60;29.60;;;;;;5092521;28;20500;-66
2022/08/12 12:32:16;;;;;;;2.13;1.93;;;27.60;29.50;;;;;;5094927;27;20553;-71
2022/08/12 12:34:45;;;;;;;2.93;2.70;;;27.50;29.60;;;;;;5085881;28;20513;-71
2022/08/12 12:37:34;;;;;;;2.40;2.20;;;27.60;29.70;;;;;;5086361;28;20456;-71
2022/08/12 12:40:23;;;;;;;3.80;2.00;;;27.60;29.70;;;;;;5082648;28;20451;-71
2022/08/12 12:42:59;;;;;;;2.63;2.20;;;27.60;29.70;;;;;;5079494;28;20440;-71
2022/08/12 12:45:34;;;;;;;2.40;2.20;;;27.60;29.70;;;;;;5097313;27;20482;-71
2022/08/12 12:48:04;;;;;;;2.30;2.10;;;27.50;29.80;;;;;;5083175;28;20477;-71
2022/08/12 12:50:34;;;;;;;3.10;2.30;;;27.60;29.60;;;;;;5083920;28;20453;-71
2022/08/12 12:53:20;;;;;;;2.43;1.80;;;27.60;29.40;;;;;;5087174;28;20449;-71
2022/08/12 12:56:14;;;;;;;2.43;2.23;;;27.60;29.50;;;;;;5088444;28;20488;-71
2022/08/12 12:58:45;;;;;;;2.40;2.20;;;27.60;29.50;;;;;;5097740;22;20570;-52
2022/08/12 13:01:15;;;;;;;2.40;2.20;;;27.60;29.50;;;;;;5038607;28;20467;-53
2022/08/12 13:03:57;;;;;;;3.13;2.27;;;27.60;28.80;;;;;;5043380;28;20492;-53
2022/08/12 13:06:32;;;;;;;2.50;2.27;;;27.60;28.80;;;;;;5041247;28;20765;-52
2022/08/12 13:09:02;;;;;;;2.40;2.20;;;27.60;28.90;;;;;;5045240;28;20852;-51
2022/08/12 13:11:31;;;;;;;2.17;2.03;;;27.60;29.10;;;;;;5053080;28;20455;-53
2022/08/12 13:14:14;;;;;;;4.70;1.90;;;27.60;29.20;;;;;;5042568;28;20846;-53
2022/08/12 13:16:59;;;;;;;2.17;1.83;;;27.60;29.10;;;;;;5049025;28;20468;-52
2022/08/12 13:19:35;;;;;;;2.20;2.00;;;27.60;29.10;;;;;;5058200;28;20461;-52
2022/08/12 13:22:17;;;;;;;1.73;1.63;;;27.60;29.20;;;;;;5032905;28;20451;-53
2022/08/12 13:24:51;;;;;;;2.13;1.93;;;27.60;29.20;;;;;;5062085;28;20553;-53
2022/08/12 13:27:28;;;;;;;3.60;2.13;;;27.60;29.10;;;;;;5057674;28;20787;-53
2022/08/12 13:30:08;;;;;;;2.13;1.93;;;27.60;29.10;;;;;;5058313;28;20451;-52
2022/08/12 13:32:40;;;;;;;3.13;1.80;;;27.60;29.10;;;;;;5053487;28;20481;-53
2022/08/12 13:35:10;;;;;;;1.93;1.83;;;27.60;29.20;;;;;;5060110;28;20475;-52
2022/08/12 13:37:59;;;;;;;2.33;2.00;;;27.60;29.10;;;;;;5051555;28;20549;-52
2022/08/12 13:40:32;;;;;;;2.13;2.03;;;27.60;29.00;;;;;;5046554;28;20444;-52
2022/08/12 13:43:05;;;;;;;1.70;1.60;;;27.60;29.00;;;;;;5045190;28;20931;-52
2022/08/12 13:45:35;;;;;;;2.40;2.03;;;27.60;29.00;;;;;;5041132;28;20474;-52
2022/08/12 13:48:05;;;;;;;2.33;2.07;;;27.60;29.00;;;;;;5044940;28;20530;-52
2022/08/12 13:50:36;;;;;;;5.33;1.80;;;27.70;28.90;;;;;;5067438;28;20449;-53
2022/08/12 13:53:08;;;;;;;2.23;2.13;;;27.70;29.10;;;;;;5047094;28;20781;-52
2022/08/12 13:55:53;;;;;;;2.40;1.97;;;27.70;28.50;;;;;;5052947;28;20893;-52
2022/08/12 13:58:30;;;;;;;2.17;1.97;;;27.70;28.80;;;;;;5067096;28;20489;-53
2022/08/12 14:01:04;;;;;;;2.00;1.87;;;27.70;28.90;;;;;;5031468;28;20574;-52
2022/08/12 14:03:36;;;;;;;1.90;1.80;;;27.70;29.00;;;;;;5055558;28;20541;-52
2022/08/12 14:06:19;;;;;;;2.00;1.90;;;27.70;29.10;;;;;;5044586;28;20468;-52
2022/08/12 14:08:49;;;;;;;1.90;1.80;;;27.70;29.00;;;;;;5057434;28;20486;-53
2022/08/12 14:11:18;;;;;;;1.97;1.63;;;27.70;28.90;;;;;;5048302;28;20483;-52
2022/08/12 14:13:52;;;;;;;1.97;1.87;;;27.70;29.10;;;;;;5050435;28;20823;-52
2022/08/12 14:16:41;;;;;;;1.87;1.60;;;27.70;29.10;;;;;;5056131;28;20542;-52
2022/08/12 14:19:19;;;;;;;2.20;2.00;;;27.70;29.20;;;;;;5042944;28;20475;-53
2022/08/12 14:21:50;;;;;;;1.70;1.60;;;27.70;29.20;;;;;;5048151;28;20514;-52
2022/08/12 14:24:35;;;;;;;2.10;1.90;;;27.70;29.30;;;;;;5064503;28;20459;-52
2022/08/12 14:27:09;;;;;;;1.83;1.63;;;27.80;29.40;;;;;;5044047;28;20465;-52
2022/08/12 14:29:40;;;;;;;1.97;1.80;;;27.80;29.20;;;;;;5059786;28;20497;-52
2022/08/12 14:32:33;;;;;;;2.20;2.00;;;27.80;29.30;;;;;;5046988;28;20458;-52
2022/08/12 14:35:05;;;;;;;1.73;1.63;;;27.80;29.40;;;;;;5050984;28;20530;-53
2022/08/12 14:37:38;;;;;;;3.80;2.00;;;27.80;29.30;;;;;;5044082;28;20455;-52
2022/08/12 14:40:27;;;;;;;2.23;2.03;;;27.80;29.40;;;;;;5042805;28;20658;-52
2022/08/12 14:42:57;;;;;;;2.20;2.00;;;27.80;29.20;;;;;;5048360;28;20501;-53
2022/08/12 14:45:26;;;;;;;2.60;1.93;;;27.80;29.20;;;;;;5055598;28;20454;-52
2022/08/12 14:48:18;;;;;;;2.40;1.80;;;27.80;29.30;;;;;;5045564;28;20921;-53
2022/08/12 14:50:52;;;;;;;1.83;1.73;;;27.80;29.30;;;;;;5048963;28;20501;-53
2022/08/12 14:53:42;;;;;;;4.03;2.00;;;27.80;29.20;;;;;;5031813;28;20448;-52
2022/08/12 14:56:31;;;;;;;2.00;1.90;;;27.80;29.20;;;;;;5053752;28;20483;-52
2022/08/12 15:02:27;;;;;;;2.30;2.00;;;27.90;29.20;;;;;;5062702;28;20961;-52
2022/08/12 15:05:01;;;;;;;2.13;1.93;;;27.90;29.20;;;;;;5052162;28;20475;-52
2022/08/12 15:07:31;;;;;;;2.20;2.00;;;27.90;29.20;;;;;;5051887;28;20934;-51
2022/08/12 15:10:19;;;;;;;1.60;1.50;;;27.90;28.80;;;;;;5061605;28;20475;-52
2022/08/12 15:13:05;;;;;;;2.10;1.90;;;27.90;28.90;;;;;;5066055;28;21011;-52
2022/08/12 15:15:38;;;;;;;2.30;1.90;;;27.90;29.00;;;;;;5057394;28;20864;-52
2022/08/12 15:18:14;;;;;;;2.77;2.00;;;27.90;28.50;;;;;;5041352;28;20718;-52
2022/08/12 15:20:51;;;;;;;2.30;2.20;;;28.00;28.40;;;;;;5060074;28;20481;-53
2022/08/12 15:23:22;;;;;;;3.13;1.70;;;28.00;28.60;;;;;;5053897;28;20447;-53
2022/08/12 15:25:57;;;;;;;2.17;1.97;;;28.00;28.40;;;;;;5055614;28;20439;-52
2022/08/12 15:28:33;;;;;;;2.73;2.13;;;28.10;28.70;;;;;;5052586;28;20443;-53